Butte Valley, California
Current Conditions -  °F | °C
As of 12:53 PM on Thursday 23 Oct 2014 (Local Time) from KOVE Reporting Station
Light Rain Light Rain  
Wind Chill: 66°   Ceiling: 8000
Heat Index: 66°   Visibility: 10mi
Dew Point: 49°   Wind: 5mph
Humidity: 54%   Direction: 200°SSW
Pressure: 30.07"   Gusts: NA
Location:  39.5324°N, 121.648°W
Report Text: KOVE 231953Z AUTO 20004KT 10SM -RA FEW065 BKN080 OVC100 19/09 A3007 RMK AO2 RAB42 SLP185 P0000 T01890094
Loading
Personal Weather Stations






























Interactive Weather Map
Tropical Storm Tracking
New forecast layout! Learn more

10-Day Weather Forecast

Advertisements
Track Severe Weather on mobile